0PN7 weather

Drillmore Acres Airport
Newburg, Pennsylvania, United States

Public forecast

Using degrees Fahrenheit for public forecast. Weather courtesy of forecast.io.

Closest aviation weather report (METAR) to Drillmore Acres Airport

Closest report is Hagerstown Regional Richard A Henson Field, 25.6 nm (47.5 km) S. Retrieved 2020/06/01 22:53 UTC (54 minutes ago):

KHGR 012253Z 34010KT 10SM CLR 23/02 A3014 RMK AO2 SLP215 T02280022

Closest aviation forecast (TAF) to Drillmore Acres Airport

Closest forecast is Altoona Blair County Airport, 33.1 nm (61.4 km) WNW. Retrieved 2020/06/01 18:22 UTC (5 hours ago):

TAF KAOO 011720Z 0118/0218 32007KT P6SM SCT070 FM020000 25004KT P6SM BKN250 FM021000 21004KT P6SM VCSH OVC050